Johnston, Iowa
Current Conditions -  °F | °C
As of 10:35 AM on Sunday 21 Dec 2014 (Local Time) from KIKV Reporting Station
Overcast Overcast  
Wind Chill: 30°   Ceiling: 1600
Heat Index: 39°   Visibility: 10mi
Dew Point: 36°   Wind: 16mph
Humidity: 87%   Direction: 180°S
Pressure: 29.94"   Gusts: 23mph
Location:  41.67°N, 93.7°W
Report Text: KIKV 211635Z AUTO 18014G20KT 10SM OVC016 04/02 A2994 RMK AO2
Loading
Personal Weather Stations






























Interactive Weather Map New forecast layout! Learn more

10-Day Weather Forecast

Advertisements
Track Severe Weather on mobile